Latest Weather Observations for Weipa

IDQ60801

Issued at 9:02 pm EST Thursday 17 January 2019 (issued every 10 minutes, with the page automatically refreshed every 10 minutes)

About weather observations | Map of weather stations | Latest weather observations for QLD | Other Formats
Station Details ID: 027045 Name: WEIPA AERO Lat: -12.68 Lon: 141.92 Height: 17.96 m
Data from the previous 72 hours. | See also: Recent months at Weipa
Date/Time
EST
Temp
°C
App
Temp
°C
Dew
Point
°C
Rel
Hum
%
Delta-T
°C
Wind Press
QNH
hPa
Press
MSL
hPa
Rain since
9am
mm
Dir  Spd
km/h
Gust
km/h
Spd
kts
Gust
kts
17/09:00pm 27.2 31.8 24.8 87 1.7 E 9 11 5 6 1007.4 1007.3 0.0
17/08:30pm 27.2 32.0 24.1 83 2.1 ENE 6 7 3 4 1007.2 1007.1 0.0
17/08:00pm 27.4 32.0 24.1 82 2.3 ENE 7 9 4 5 1006.6 1006.5 0.0
17/07:30pm 27.7 31.7 23.7 79 2.8 ESE 9 11 5 6 1006.4 1006.3 0.0
17/07:00pm 28.1 31.6 23.5 76 3.2 E 11 15 6 8 1005.9 1005.8 0.0
17/06:30pm 28.7 31.7 24.0 76 3.3 ESE 15 26 8 14 1005.1 1005.0 0.0
17/06:00pm 28.3 33.6 25.3 84 2.1 E 7 9 4 5 1004.7 1004.6 0.0
17/05:30pm 28.2 33.5 25.0 83 2.2 S 6 7 3 4 1004.3 1004.2 0.0
17/05:00pm 27.9 32.8 24.7 83 2.2 SE 7 9 4 5 1004.6 1004.5 0.0
17/04:30pm 27.5 32.4 24.4 83 2.2 SSW 6 7 3 4 1004.4 1004.3 0.0
17/04:00pm 27.2 31.8 24.7 86 1.7 SE 9 13 5 7 1004.8 1004.7 0.0
17/03:30pm 26.4 29.1 24.1 87 1.6 SE 17 24 9 13 1005.3 1005.2 0.0
17/03:23pm 26.5 28.2 23.4 83 2.1 SE 20 28 11 15 1005.2 1005.1 0.0
17/03:00pm 31.6 33.2 24.5 66 5.0 E 24 33 13 18 1004.7 1004.6 0.0
17/02:30pm 30.0 33.4 26.2 80 2.7 E 20 30 11 16 1005.1 1005.0 0.0
17/02:10pm 27.5 30.5 24.7 85 1.9 SE 17 24 9 13 1005.7 1005.6 0.0
17/02:00pm 26.8 27.1 24.3 86 1.7 ESE 30 44 16 24 1006.0 1005.9 0.0
17/01:59pm 26.7 26.6 24.2 86 1.7 ESE 32 46 17 25 1006.0 1005.9 0.0
17/01:48pm 28.3 28.5 22.8 72 3.7 ESE 26 56 14 30 1006.0 1005.9 0.0
17/01:46pm 30.3 31.5 23.2 65 4.9 ESE 22 43 12 23 1006.0 1005.9 0.0
17/01:30pm 31.4 34.1 24.8 68 4.6 SE 19 24 10 13 1005.8 1005.7 0.0
17/01:00pm 30.8 35.1 26.1 76 3.4 E 15 20 8 11 1006.2 1006.1 0.0
17/12:30pm 28.0 29.5 24.4 81 2.5 E 24 39 13 21 1007.1 1007.0 0.0
17/12:00pm 30.2 32.9 24.1 70 4.2 NNE 17 26 9 14 1007.4 1007.3 0.0
17/11:30am 30.2 33.2 24.6 72 3.9 E 17 22 9 12 1007.9 1007.8 0.0
17/11:00am 30.3 33.3 24.7 72 3.9 ENE 17 24 9 13 1008.2 1008.1 0.0
17/10:30am 30.3 33.3 24.7 72 3.9 E 17 22 9 12 1008.6 1008.5 0.0
17/10:00am 29.6 32.1 24.5 74 3.6 E 19 22 10 12 1008.8 1008.7 0.0
17/09:30am 28.9 31.1 24.0 75 3.4 E 19 28 10 15 1009.0 1008.9 0.0
17/09:00am 28.3 30.7 24.3 79 2.8 ENE 19 26 10 14 1008.9 1008.8 0.0
17/08:30am 28.0 31.4 24.6 82 2.4 ENE 15 22 8 12 1008.7 1008.6 0.0
17/08:00am 27.0 31.1 24.5 86 1.7 ENE 11 17 6 9 1008.3 1008.2 0.0
17/07:30am 26.0 30.1 23.9 88 1.4 NE 9 11 5 6 1008.1 1008.0 0.0
17/07:00am 25.2 29.7 23.6 91 1.1 NE 6 9 3 5 1007.8 1007.7 0.0
17/06:30am 25.0 29.4 23.8 93 0.8 NE 7 9 4 5 1007.4 1007.3 0.0
17/06:00am 25.0 30.0 23.8 93 0.8 E 4 6 2 3 1007.1 1007.0 0.0
17/05:30am 25.1 29.8 23.9 93 0.8 E 6 9 3 5 1006.8 1006.7 0.0
17/05:00am 25.0 28.6 23.8 93 0.8 ENE 11 15 6 8 1006.3 1006.2 0.0
17/04:30am 25.1 28.8 23.9 93 0.8 ENE 11 13 6 7 1006.2 1006.1 0.0
17/04:00am 25.1 28.8 23.9 93 0.8 ENE 11 15 6 8 1006.4 1006.3 0.0
17/03:30am 25.1 28.8 23.9 93 0.8 E 11 15 6 8 1006.5 1006.4 0.0
17/03:00am 25.2 29.3 24.0 93 0.8 ENE 9 11 5 6 1006.8 1006.7 0.0
17/02:30am 25.3 29.8 23.9 92 1.0 ENE 7 9 4 5 1007.2 1007.1 0.0
17/02:00am 25.3 28.7 24.1 93 0.8 E 13 17 7 9 1007.1 1007.0 0.0
17/01:30am 25.3 29.1 24.1 93 0.8 ENE 11 13 6 7 1007.4 1007.3 0.0
17/01:25am 25.3 28.7 24.1 93 0.8 ENE 13 15 7 8 1007.4 1007.3 0.0
17/01:06am 25.3 29.5 24.1 93 0.8 E 9 13 5 7 1007.7 1007.6 0.0
17/01:00am 25.3 29.5 24.1 93 0.8 E 9 11 5 6 1007.8 1007.7 0.0
17/12:30am 25.1 29.6 23.9 93 0.8 ENE 7 13 4 7 1007.9 1007.8 0.0
17/12:00am 25.2 29.7 24.0 93 0.8 NE 7 11 4 6 1008.4 1008.3 0.0
 
Date/Time
EST
Temp
°C
App
Temp
°C
Dew
Point
°C
Rel
Hum
%
Delta-T
°C
Wind Press
QNH
hPa
Press
MSL
hPa
Rain since
9am
mm
Dir  Spd
km/h
Gust
km/h
Spd
kts
Gust
kts
16/11:30pm 25.2 28.6 24.0 93 0.8 E 13 17 7 9 1008.8 1008.7 0.0
16/11:01pm 25.1 29.7 24.1 94 0.7 NE 7 11 4 6 1009.0 1008.9 0.0
16/11:00pm 25.1 29.7 24.1 94 0.7 NE 7 11 4 6 1009.0 1008.9 0.0
16/10:30pm 24.9 27.6 23.5 92 1.0 E 15 19 8 10 1008.8 1008.7 0.0
16/10:17pm 25.2 28.3 23.6 91 1.1 E 13 15 7 8 1009.1 1009.0 0.0
16/10:00pm 25.6 29.5 24.2 92 1.0 ENE 11 17 6 9 1009.0 1008.9 0.0
16/09:41pm 25.7 28.8 24.1 91 1.1 ENE 15 19 8 10 1008.6 1008.5 0.0
16/09:30pm 26.1 29.9 24.7 92 1.0 ENE 13 22 7 12 1008.4 1008.3 0.0
16/09:24pm 26.4 30.9 25.2 93 0.8 SE 11 13 6 7 1008.1 1008.0 0.0
16/09:00pm 26.2 31.3 24.6 91 1.1 S 6 9 3 5 1007.6 1007.5 0.0
16/08:56pm 26.2 31.3 24.6 91 1.1 SSE 6 7 3 4 1007.6 1007.5 0.0
16/08:30pm 26.3 31.2 24.7 91 1.1 SSE 7 11 4 6 1007.6 1007.5 0.0
16/08:02pm 26.2 30.4 24.8 92 1.0 S 11 15 6 8 1006.9 1006.8 0.0
16/08:00pm 26.2 30.4 24.8 92 1.0 S 11 15 6 8 1006.8 1006.7 0.0
16/07:44pm 26.2 29.9 24.6 91 1.1 SSE 13 19 7 10 1006.8 1006.7 0.0
16/07:30pm 26.6 30.5 24.8 90 1.3 SE 13 15 7 8 1006.9 1006.8 0.0
16/07:00pm 26.8 31.7 25.2 91 1.1 ESE 9 13 5 7 1006.6 1006.5 0.0
16/06:30pm 26.6 32.8 24.6 89 1.4 CALM 0 7 0 4 1006.3 1006.2 0.0
16/06:00pm 26.8 31.9 25.0 90 1.3 SE 7 11 4 6 1005.4 1005.3 0.0
16/05:30pm 26.7 31.0 24.2 86 1.7 SSE 9 13 5 7 1005.4 1005.3 0.0
16/05:00pm 27.6 29.9 24.4 83 2.2 SSW 20 32 11 17 1004.7 1004.6 0.0
16/04:30pm 29.3 31.3 23.0 69 4.3 SSW 17 32 9 17 1004.5 1004.4 0.0
16/04:00pm 32.1 36.0 23.6 60 5.9 SW 9 13 5 7 1004.4 1004.3 0.0
16/03:30pm 31.0 36.0 23.9 66 4.9 WNW 4 7 2 4 1004.6 1004.5 0.0
16/03:00pm 28.9 33.8 25.3 81 2.5 NNW 9 15 5 8 1005.0 1004.9 0.0
16/02:30pm 27.8 30.5 24.8 84 2.1 N 19 28 10 15 1005.2 1005.1 0.0
16/02:00pm 31.0 34.6 23.1 63 5.4 NW 9 15 5 8 1005.5 1005.4 0.0
16/01:30pm 30.7 33.8 23.6 66 4.9 W 13 17 7 9 1006.0 1005.9 0.0
16/01:00pm 29.6 33.4 24.0 72 3.9 SW 11 19 6 10 1006.7 1006.6 0.0
16/12:30pm 30.5 33.9 23.4 66 4.9 NNE 11 19 6 10 1007.1 1007.0 0.0
16/12:00pm 30.3 34.4 24.0 69 4.4 ENE 9 13 5 7 1007.6 1007.5 0.0
16/11:30am 30.3 34.4 24.0 69 4.4 ENE 9 15 5 8 1008.1 1008.0 0.0
16/11:00am 30.1 33.5 24.0 70 4.2 ESE 13 26 7 14 1008.7 1008.6 0.0
16/10:30am 29.7 33.9 24.1 72 3.9 SE 9 13 5 7 1009.0 1008.9 0.0
16/10:00am 29.3 32.8 24.2 74 3.5 E 13 17 7 9 1009.2 1009.1 0.0
16/09:30am 29.0 32.6 24.3 76 3.3 ESE 13 19 7 10 1009.4 1009.3 0.0
16/09:00am 27.5 31.2 23.9 81 2.5 ESE 11 15 6 8 1009.5 1009.4 0.0
16/08:30am 26.8 30.2 24.1 85 1.9 ESE 13 17 7 9 1009.5 1009.4 0.0
16/08:00am 26.3 30.2 24.2 88 1.5 SE 11 13 6 7 1009.1 1009.0 0.0
16/07:30am 26.3 30.1 24.0 87 1.6 ESE 11 13 6 7 1008.8 1008.7 0.0
16/07:00am 25.7 29.9 24.1 91 1.1 E 9 11 5 6 1008.5 1008.4 0.0
16/06:30am 24.8 28.7 23.6 93 0.8 E 9 13 5 7 1008.0 1007.9 0.0
16/06:00am 24.8 28.7 23.6 93 0.8 E 9 11 5 6 1007.5 1007.4 0.0
16/05:30am 24.8 28.7 23.6 93 0.8 E 9 9 5 5 1006.8 1006.7 0.0
16/05:00am 25.0 28.9 23.6 92 1.0 ESE 9 11 5 6 1006.3 1006.2 0.0
16/04:30am 24.8 28.3 23.6 93 0.8 E 11 13 6 7 1006.0 1005.9 0.0
16/04:00am 24.8 28.7 23.6 93 0.8 E 9 11 5 6 1005.9 1005.8 0.0
16/03:30am 24.9 29.2 23.7 93 0.8 ESE 7 9 4 5 1006.1 1006.0 0.0
16/03:00am 24.9 29.7 23.5 92 1.0 SE 4 9 2 5 1006.3 1006.2 0.0
16/02:30am 24.9 30.3 23.3 91 1.1 CALM 0 6 0 3 1006.8 1006.7 0.0
16/02:00am 24.9 28.7 23.5 92 1.0 ESE 9 11 5 6 1006.9 1006.8 0.0
16/01:30am 24.9 28.9 23.7 93 0.8 E 9 11 5 6 1007.1 1007.0 0.0
16/01:00am 25.0 29.3 23.6 92 1.0 E 7 9 4 5 1007.6 1007.5 0.0
16/12:30am 25.2 29.8 23.8 92 1.0 NE 6 7 3 4 1008.2 1008.1 0.0
16/12:00am 25.3 31.0 23.7 91 1.1 CALM 0 7 0 4 1008.8 1008.7 0.0
 
Date/Time
EST
Temp
°C
App
Temp
°C
Dew
Point
°C
Rel
Hum
%
Delta-T
°C
Wind Press
QNH
hPa
Press
MSL
hPa
Rain since
9am
mm
Dir  Spd
km/h
Gust
km/h
Spd
kts
Gust
kts
15/11:30pm 25.3 30.9 23.5 90 1.2 CALM 0 0 0 0 1009.2 1009.1 0.0
15/11:00pm 25.4 29.8 23.8 91 1.1 ENE 7 9 4 5 1008.9 1008.8 0.0
15/10:30pm 25.2 29.5 23.6 91 1.1 NE 7 11 4 6 1008.6 1008.5 0.0
15/10:00pm 25.4 29.4 23.8 91 1.1 SE 9 13 5 7 1008.3 1008.2 0.0
15/09:30pm 25.6 30.0 23.8 90 1.2 NE 7 9 4 5 1008.3 1008.2 0.0
15/09:00pm 25.6 30.6 23.8 90 1.2 NE 4 9 2 5 1008.4 1008.3 0.0
15/08:30pm 25.8 30.2 23.8 89 1.4 NE 7 13 4 7 1008.3 1008.2 0.0
15/08:00pm 26.0 30.4 24.4 91 1.1 ESE 9 13 5 7 1007.6 1007.5 0.0
15/07:30pm 26.1 29.4 23.8 87 1.6 ESE 13 17 7 9 1007.2 1007.1 0.0
15/07:00pm 26.5 30.3 24.0 86 1.7 E 11 13 6 7 1007.2 1007.1 0.0
15/06:30pm 26.9 31.2 24.2 85 1.9 ENE 9 13 5 7 1006.6 1006.5 0.0
15/06:00pm 27.2 31.5 24.3 84 2.0 SE 9 13 5 7 1006.1 1006.0 0.0
15/05:30pm 29.0 34.1 25.6 82 2.4 S 9 19 5 10 1005.8 1005.7 0.0
15/05:00pm 28.3 34.2 24.1 78 2.9 CALM 0 0 0 0 1005.5 1005.4 0.0
15/04:30pm 27.4 32.1 25.0 87 1.7 SW 9 13 5 7 1005.2 1005.1 0.0
15/04:00pm 26.7 31.1 24.5 88 1.5 W 9 13 5 7 1005.3 1005.2 0.0
15/03:56pm 26.5 31.1 24.7 90 1.3 WSW 9 15 5 8 1005.3 1005.2 0.0
15/03:39pm 26.6 30.0 24.6 89 1.4 S 15 26 8 14 1005.5 1005.4 0.0
15/03:30pm 26.9 29.5 24.0 84 2.0 SSE 17 26 9 14 1005.5 1005.4 0.0
15/03:00pm 28.4 31.2 25.0 82 2.4 ENE 19 24 10 13 1005.3 1005.2 0.0
15/02:30pm 31.3 33.9 22.6 60 5.9 SW 13 19 7 10 1005.5 1005.4 0.0
15/02:00pm 32.8 36.4 23.7 58 6.3 SW 11 15 6 8 1005.9 1005.8 0.0
15/01:30pm 32.4 36.3 22.5 56 6.8 W 6 15 3 8 1006.2 1006.1 0.0
15/01:00pm 31.9 35.6 22.6 58 6.4 ESE 7 13 4 7 1006.7 1006.6 0.0
15/12:30pm 32.0 35.6 23.0 59 6.2 SE 9 17 5 9 1007.2 1007.1 0.0
15/12:00pm 31.3 33.9 22.0 57 6.3 ESE 11 17 6 9 1007.6 1007.5 0.0
15/11:30am 31.3 33.5 21.8 57 6.4 ESE 13 19 7 10 1007.9 1007.8 0.0
15/11:00am 30.6 32.8 21.1 57 6.4 ESE 11 17 6 9 1008.3 1008.2 0.0
15/10:30am 29.7 33.1 22.7 66 4.8 ESE 9 15 5 8 1008.8 1008.7 0.0
15/10:00am 29.6 32.9 22.6 66 4.8 ESE 9 13 5 7 1008.9 1008.8 0.0
15/09:30am 28.8 32.1 23.2 71 3.8 E 11 13 6 7 1009.2 1009.1 0.0
15/09:00am 27.8 31.9 24.0 80 2.6 ENE 9 11 5 6 1009.4 1009.3 0.0
15/08:30am 27.0 31.1 23.3 80 2.5 ENE 7 9 4 5 1009.5 1009.4 0.0
15/08:00am 26.3 30.2 23.6 85 1.9 ENE 9 13 5 7 1009.3 1009.2 0.0
15/07:30am 25.5 30.9 23.2 87 1.6 CALM 0 0 0 0 1009.1 1009.0 0.0
15/07:00am 25.1 29.1 23.7 92 1.0 E 9 11 5 6 1008.9 1008.8 0.0
15/06:30am 25.2 29.6 23.8 92 1.0 E 7 9 4 5 1008.6 1008.5 0.0
15/06:00am 25.1 30.8 23.7 92 1.0 CALM 0 0 0 0 1008.3 1008.2 0.0
15/05:30am 25.1 30.4 23.7 92 1.0 E 2 7 1 4 1007.7 1007.6 0.0
15/05:00am 25.3 29.4 23.9 92 1.0 ESE 9 9 5 5 1007.2 1007.1 0.0
15/04:30am 25.3 29.8 23.9 92 1.0 ESE 7 9 4 5 1007.2 1007.1 0.0
15/04:00am 25.5 29.8 23.7 90 1.2 ESE 7 9 4 5 1006.9 1006.8 0.0
15/03:30am 25.6 30.0 23.8 90 1.2 ESE 7 7 4 4 1006.9 1006.8 0.0
15/03:00am 25.6 30.3 24.0 91 1.1 SE 6 9 3 5 1007.2 1007.1 0.0
15/02:30am 25.7 29.9 24.1 91 1.1 SE 9 11 5 6 1007.6 1007.5 0.0
15/02:12am 25.8 30.1 24.2 91 1.1 ESE 9 11 5 6 1007.7 1007.6 0.0
15/02:00am 25.8 29.7 24.2 91 1.1 ESE 11 11 6 6 1007.6 1007.5 0.0
15/01:36am 25.6 29.4 24.0 91 1.1 ESE 11 13 6 7 1007.7 1007.6 0.0
15/01:30am 25.9 30.3 24.5 92 1.0 ESE 9 11 5 6 1007.7 1007.6 0.0
15/01:00am 25.8 31.5 23.8 89 1.4 CALM 0 0 0 0 1008.0 1007.9 0.0
15/12:30am 25.8 31.8 24.2 91 1.1 CALM 0 0 0 0 1008.4 1008.3 0.0
15/12:03am 25.8 31.6 24.0 90 1.2 CALM 0 6 0 3 1008.6 1008.5 0.0
15/12:00am 25.8 31.3 24.0 90 1.2 WSW 2 9 1 5 1008.6 1008.5 0.0
 
Date/Time
EST
Temp
°C
App
Temp
°C
Dew
Point
°C
Rel
Hum
%
Delta-T
°C
Wind Press
QNH
hPa
Press
MSL
hPa
Rain since
9am
mm
Dir  Spd
km/h
Gust
km/h
Spd
kts
Gust
kts
14/11:46pm 25.8 30.9 24.0 90 1.2 NNW 4 11 2 6 1008.7 1008.6 0.0
14/11:30pm 25.8 30.1 24.2 91 1.1 E 9 17 5 9 1008.7 1008.6 0.0
14/11:00pm 25.7 29.9 24.1 91 1.1 SE 9 13 5 7 1008.5 1008.4 0.0
14/10:30pm 26.0 29.4 24.0 89 1.4 SE 13 17 7 9 1008.6 1008.5 0.0
14/10:00pm 26.3 29.5 24.3 89 1.4 NE 15 17 8 9 1008.4 1008.3 0.0
14/09:30pm 26.2 31.7 24.1 88 1.4 NNE 2 6 1 3 1007.9 1007.8 0.0
14/09:11pm 26.4 30.2 24.1 87 1.6 NE 11 15 6 8 1007.8 1007.7 0.0

Other Formats:

Comma delimited format used in spreadsheet applications
http://www.bom.gov.au/fwo/IDQ60801/IDQ60801.94170.axf

JavaScript Object Notation format (JSON) in row-major order
http://www.bom.gov.au/fwo/IDQ60801/IDQ60801.94170.json